Time;durP1;ratioP1;P1;durP2;ratioP2;P2;SDS_P1;SDS_P2;PMS_P1;PMS_P2;Temp;Humidity;BMP_temperature;BMP_pressure;BME280_temperature;BME280_humidity;BME280_pressure;Samples;Min_cycle;Max_cycle;Signal;HPM_P1;HPM_P2
2023/04/26 00:02:22;;;;;;;3.88;1.42;;;;;;;20.30;52.48;100739.06;5053577;28;20056;-55
2023/04/26 00:04:57;;;;;;;3.58;1.67;;;;;;;20.30;52.21;100739.06;5053817;28;20044;-54
2023/04/26 00:07:25;;;;;;;3.38;1.60;;;;;;;20.29;52.22;100743.56;5053598;28;20049;-55
2023/04/26 00:09:52;;;;;;;3.20;1.30;;;;;;;20.29;52.18;100734.66;5053538;28;20061;-57
2023/04/26 00:12:20;;;;;;;2.78;1.40;;;;;;;20.28;52.34;100739.19;5053146;28;20052;-57
2023/04/26 00:14:48;;;;;;;2.75;1.30;;;;;;;20.29;52.29;100742.72;5053287;28;20041;-57
2023/04/26 00:17:15;;;;;;;3.65;1.55;;;;;;;20.28;52.32;100733.81;5053452;28;20048;-57
2023/04/26 00:19:44;;;;;;;1.95;1.08;;;;;;;20.28;52.11;100736.50;5053307;28;20052;-53
2023/04/26 00:22:11;;;;;;;3.80;1.40;;;;;;;20.27;52.22;100731.28;5053270;28;20045;-54
2023/04/26 00:24:39;;;;;;;3.30;1.55;;;;;;;20.28;52.26;100739.19;5056684;28;20051;-55
2023/04/26 00:27:09;;;;;;;4.22;1.42;;;;;;;20.25;52.17;100743.03;5057279;28;20041;-55
2023/04/26 00:29:36;;;;;;;2.55;1.50;;;;;;;20.26;52.18;100746.56;5057688;28;20044;-55
2023/04/26 00:32:04;;;;;;;3.30;1.40;;;;;;;20.24;52.18;100744.00;5057232;28;20497;-55
2023/04/26 00:34:35;;;;;;;2.67;1.42;;;;;;;20.24;52.14;100757.44;5055961;28;20045;-55
2023/04/26 00:37:04;;;;;;;2.78;1.25;;;;;;;20.25;52.12;100748.41;5055983;28;20056;-56
2023/04/26 00:39:31;;;;;;;2.53;1.13;;;;;;;20.25;52.14;100736.78;5057178;28;20052;-55
2023/04/26 00:41:58;;;;;;;2.67;1.35;;;;;;;20.24;52.21;100746.69;5056443;28;20132;-55
2023/04/26 00:44:26;;;;;;;2.50;1.23;;;;;;;20.24;52.03;100745.84;5057193;28;20391;-56
2023/04/26 00:46:55;;;;;;;2.72;1.13;;;;;;;20.23;52.06;100747.69;5057103;28;20045;-56
2023/04/26 00:49:27;;;;;;;3.13;1.65;;;;;;;20.23;52.21;100750.38;5055463;28;20502;-55
2023/04/26 00:51:54;;;;;;;3.77;1.60;;;;;;;20.23;52.16;100741.47;5057020;28;20045;-55
2023/04/26 00:54:23;;;;;;;2.28;1.17;;;;;;;20.23;52.02;100745.00;5055588;28;20060;-55
2023/04/26 00:56:51;;;;;;;3.63;1.10;;;;;;;20.23;52.06;100746.84;5056675;28;20044;-54
2023/04/26 00:59:20;;;;;;;2.67;1.13;;;;;;;20.22;51.79;100748.69;5056983;28;20056;-57
2023/04/26 01:01:48;;;;;;;2.45;1.33;;;;;;;20.23;51.98;100754.91;5056933;28;20041;-57
2023/04/26 01:04:16;;;;;;;3.85;1.38;;;;;;;20.22;51.84;100755.91;5055999;28;20057;-57
2023/04/26 01:06:44;;;;;;;2.40;0.85;;;;;;;20.21;51.97;100756.88;5055773;28;20044;-57
2023/04/26 01:09:14;;;;;;;3.70;1.33;;;;;;;20.21;51.84;100755.03;5055587;28;20048;-55
2023/04/26 01:11:43;;;;;;;2.92;1.38;;;;;;;20.19;52.03;100748.94;5055385;28;20060;-56
2023/04/26 01:14:11;;;;;;;3.10;1.40;;;;;;;20.21;51.86;100751.50;5056556;28;20076;-55
2023/04/26 01:16:39;;;;;;;1.55;0.70;;;;;;;20.21;52.09;100748.78;5056400;28;20055;-55
2023/04/26 01:19:11;;;;;;;4.15;1.55;;;;;;;20.21;51.81;100752.34;5055443;28;20049;-57
2023/04/26 01:21:39;;;;;;;2.88;1.20;;;;;;;20.20;51.71;100744.41;5056456;28;20049;-57
2023/04/26 01:24:12;;;;;;;2.72;1.40;;;;;;;20.19;51.81;100751.63;5055296;28;20056;-57
2023/04/26 01:26:44;;;;;;;4.10;1.45;;;;;;;20.19;52.06;100750.78;5056519;28;20049;-57
2023/04/26 01:29:18;;;;;;;2.13;1.25;;;;;;;20.17;51.80;100748.22;5056548;28;20057;-55
2023/04/26 01:31:46;;;;;;;4.57;1.20;;;;;;;20.18;51.71;100751.78;5055950;28;20045;-56
2023/04/26 01:34:14;;;;;;;2.13;0.95;;;;;;;20.17;51.70;100756.28;5054523;28;20053;-55
2023/04/26 01:36:45;;;;;;;2.53;1.08;;;;;;;20.17;51.99;100753.59;5054541;28;20517;-54
2023/04/26 01:39:12;;;;;;;2.75;1.20;;;;;;;20.18;52.32;100757.16;5056090;28;20048;-57
2023/04/26 01:41:40;;;;;;;2.17;1.02;;;;;;;20.18;52.39;100752.63;5056011;28;20045;-57
2023/04/26 01:44:07;;;;;;;4.13;1.08;;;;;;;20.17;52.55;100761.66;5054951;28;20049;-57
2023/04/26 01:46:34;;;;;;;2.28;1.10;;;;;;;20.18;52.05;100763.38;5056138;28;20045;-57
2023/04/26 01:49:02;;;;;;;2.60;1.25;;;;;;;20.18;51.99;100757.16;5055878;28;20048;-57
2023/04/26 01:51:29;;;;;;;2.67;1.20;;;;;;;20.18;52.05;100757.16;5054715;28;20411;-55
2023/04/26 01:53:57;;;;;;;3.45;1.20;;;;;;;20.17;52.13;100758.13;5055727;28;20502;-54
2023/04/26 01:56:24;;;;;;;3.67;1.45;;;;;;;20.17;51.95;100760.81;5056344;28;20513;-56
2023/04/26 01:58:55;;;;;;;1.73;0.90;;;;;;;20.17;52.05;100755.44;5054222;28;20057;-55
2023/04/26 02:01:22;;;;;;;2.55;1.20;;;;;;;20.15;51.80;100752.06;5054173;28;20474;-56
2023/04/26 02:03:51;;;;;;;2.33;0.98;;;;;;;20.16;51.71;100759.13;5055453;28;20041;-55
2023/04/26 02:06:20;;;;;;;2.33;1.00;;;;;;;20.16;52.02;100764.50;5055366;28;20043;-55
2023/04/26 02:08:48;;;;;;;4.82;1.40;;;;;;;20.15;51.92;100769.03;5055583;28;20045;-56
2023/04/26 02:11:15;;;;;;;3.85;1.50;;;;;;;20.14;52.08;100772.72;5055509;28;20053;-57
2023/04/26 02:13:43;;;;;;;1.90;0.90;;;;;;;20.14;51.81;100772.72;5055442;28;20098;-58
2023/04/26 02:16:10;;;;;;;2.35;1.00;;;;;;;20.15;51.82;100773.56;5055375;28;20475;-57
2023/04/26 02:18:38;;;;;;;2.63;1.20;;;;;;;20.15;51.72;100776.25;5053731;28;20442;-57
2023/04/26 02:21:08;;;;;;;2.72;1.40;;;;;;;20.14;51.40;100771.88;5054048;28;20428;-56
2023/04/26 02:23:35;;;;;;;2.95;1.15;;;;;;;20.13;51.74;100776.38;5055247;28;20052;-56
2023/04/26 02:26:03;;;;;;;3.25;1.20;;;;;;;20.14;51.69;100775.41;5053983;28;20044;-55
2023/04/26 02:28:31;;;;;;;2.38;0.90;;;;;;;20.14;51.43;100777.25;5055249;28;20406;-56
2023/04/26 02:30:58;;;;;;;1.95;1.00;;;;;;;20.12;51.34;100763.94;5054852;28;20063;-57
2023/04/26 02:33:25;;;;;;;2.72;1.20;;;;;;;20.12;51.42;100763.09;5055019;28;20049;-57
2023/04/26 02:35:53;;;;;;;3.45;1.05;;;;;;;20.11;51.62;100764.94;5053773;28;20041;-57
2023/04/26 02:38:21;;;;;;;2.88;0.93;;;;;;;20.10;51.43;100771.28;5054841;28;20044;-57
2023/04/26 02:40:48;;;;;;;2.70;0.95;;;;;;;20.11;51.47;100773.00;5054892;28;20406;-57
2023/04/26 02:43:16;;;;;;;2.65;1.10;;;;;;;20.11;51.49;100769.44;5053829;28;20049;-57
2023/04/26 02:45:43;;;;;;;1.55;0.63;;;;;;;20.12;51.57;100773.84;5053958;28;20060;-57
2023/04/26 02:48:12;;;;;;;2.55;1.10;;;;;;;20.12;51.31;100773.84;5053614;28;20049;-57
2023/04/26 02:50:40;;;;;;;3.88;1.10;;;;;;;20.10;51.38;100776.66;5053527;28;20068;-57
2023/04/26 02:53:08;;;;;;;2.20;1.00;;;;;;;20.10;51.17;100779.34;5053811;28;20059;-57
2023/04/26 02:55:38;;;;;;;2.08;1.00;;;;;;;20.11;51.97;100775.66;5054725;28;20044;-57
2023/04/26 02:58:05;;;;;;;2.38;1.02;;;;;;;20.11;52.03;100778.34;5053635;28;20064;-57
2023/04/26 03:00:33;;;;;;;1.70;0.90;;;;;;;20.13;52.03;100776.38;5053292;28;20068;-57
2023/04/26 03:03:01;;;;;;;3.80;1.10;;;;;;;20.12;51.26;100769.31;5037129;28;20049;-57
2023/04/26 03:05:29;;;;;;;2.08;1.05;;;;;;;20.12;51.58;100777.38;5053236;28;20049;-57
2023/04/26 03:07:57;;;;;;;3.08;1.13;;;;;;;20.11;51.35;100770.28;5053071;28;20052;-57
2023/04/26 03:10:24;;;;;;;2.03;1.00;;;;;;;20.12;52.05;100766.63;5053288;28;20045;-57
2023/04/26 03:12:51;;;;;;;2.15;1.15;;;;;;;20.12;52.15;100772.00;5053225;28;20053;-57
2023/04/26 03:15:19;;;;;;;3.70;1.35;;;;;;;20.12;51.55;100768.47;5052707;28;20059;-57
2023/04/26 03:17:46;;;;;;;2.13;0.80;;;;;;;20.11;51.44;100770.28;5053356;28;20045;-57
2023/04/26 03:20:14;;;;;;;2.83;0.93;;;;;;;20.12;52.02;100779.22;5052673;28;20053;-57
2023/04/26 03:22:42;;;;;;;2.05;1.05;;;;;;;20.13;52.21;100791.66;5052620;28;20053;-57
2023/04/26 03:25:09;;;;;;;2.42;1.08;;;;;;;20.12;52.13;100784.59;5052509;28;20120;-57
2023/04/26 03:27:37;;;;;;;2.22;0.90;;;;;;;20.10;51.88;100784.72;5052935;28;20051;-57
2023/04/26 03:30:05;;;;;;;2.53;1.23;;;;;;;20.11;52.06;100799.00;5053108;28;20053;-57
2023/04/26 03:32:34;;;;;;;2.72;1.20;;;;;;;20.11;52.31;100799.00;5052664;28;20075;-57
2023/04/26 03:35:02;;;;;;;2.20;0.80;;;;;;;20.10;51.91;100798.16;5053722;28;20037;-57
2023/04/26 03:37:31;;;;;;;3.13;1.10;;;;;;;20.10;51.78;100808.06;5052937;28;20049;-57
2023/04/26 03:40:05;;;;;;;2.10;0.80;;;;;;;20.10;51.55;100797.31;5052727;28;20064;-57
2023/04/26 03:42:32;;;;;;;3.25;0.80;;;;;;;20.10;51.44;100802.69;5052415;28;20049;-57
2023/04/26 03:44:59;;;;;;;3.13;0.93;;;;;;;20.09;51.48;100801.81;5052609;28;20045;-57
2023/04/26 03:47:27;;;;;;;2.35;1.08;;;;;;;20.08;51.32;100808.19;5052675;28;20045;-57
2023/04/26 03:49:54;;;;;;;2.97;1.00;;;;;;;20.08;51.49;100807.34;5053562;28;20045;-57
2023/04/26 03:52:22;;;;;;;2.13;0.90;;;;;;;20.07;51.39;100806.50;5053624;28;20055;-57
2023/04/26 03:54:49;;;;;;;3.80;0.70;;;;;;;20.06;51.40;100812.88;5052521;28;20045;-57
2023/04/26 03:57:17;;;;;;;2.60;1.00;;;;;;;20.07;51.49;100809.19;5052410;28;20049;-57
2023/04/26 03:59:44;;;;;;;2.40;0.95;;;;;;;20.06;51.33;100804.81;5051849;28;20064;-55
2023/04/26 04:02:12;;;;;;;5.32;1.13;;;;;;;20.06;51.40;100804.81;5052112;28;20045;-54
2023/04/26 04:04:40;;;;;;;2.22;1.02;;;;;;;20.05;51.31;100805.78;5052499;28;20064;-56
2023/04/26 04:07:08;;;;;;;2.90;0.80;;;;;;;20.05;51.18;100808.47;5052290;28;20494;-55
2023/04/26 04:09:36;;;;;;;2.40;0.93;;;;;;;20.04;51.40;100804.06;5052430;28;20049;-57
2023/04/26 04:12:03;;;;;;;2.10;0.80;;;;;;;20.04;51.21;100809.44;5053297;28;20053;-57
2023/04/26 04:14:32;;;;;;;1.85;1.05;;;;;;;20.04;50.89;100809.44;5051564;28;20547;-57
2023/04/26 04:16:59;;;;;;;2.67;0.80;;;;;;;20.04;51.38;100804.06;5052140;28;20052;-57
2023/04/26 04:19:28;;;;;;;1.70;0.90;;;;;;;20.04;51.31;100801.38;5052448;28;20059;-56
2023/04/26 04:21:55;;;;;;;1.95;0.90;;;;;;;20.03;51.62;100810.44;5052313;28;20079;-56
2023/04/26 04:24:24;;;;;;;2.20;0.88;;;;;;;20.03;51.35;100815.81;5051584;28;20053;-56
2023/04/26 04:26:52;;;;;;;1.65;0.77;;;;;;;20.02;51.32;100816.81;5051827;28;20045;-56
2023/04/26 04:29:20;;;;;;;4.20;0.90;;;;;;;20.03;51.46;100823.03;5052417;28;20545;-57
2023/04/26 04:31:47;;;;;;;1.80;0.70;;;;;;;20.02;51.37;100819.50;5051402;28;20049;-57
2023/04/26 04:34:15;;;;;;;3.58;1.08;;;;;;;20.01;51.04;100815.09;5052190;28;20068;-57
2023/04/26 04:36:43;;;;;;;1.83;0.80;;;;;;;20.01;51.43;100820.47;5052203;28;20049;-57
2023/04/26 04:39:15;;;;;;;2.42;0.70;;;;;;;20.00;51.19;100818.78;5052198;28;20053;-57
2023/04/26 04:41:46;;;;;;;2.15;1.00;;;;;;;20.00;51.17;100826.84;5052233;28;20063;-55
2023/04/26 04:44:17;;;;;;;1.63;0.65;;;;;;;20.00;51.33;100824.16;5052126;28;20056;-55
2023/04/26 04:46:44;;;;;;;2.10;0.80;;;;;;;19.98;51.21;100816.25;5052035;28;20045;-55
2023/04/26 04:49:11;;;;;;;1.63;0.90;;;;;;;19.99;51.28;100828.69;5052852;28;20045;-55
2023/04/26 04:51:39;;;;;;;3.83;1.45;;;;;;;19.99;51.22;100831.38;5051767;28;20053;-55
2023/04/26 04:54:10;;;;;;;2.17;0.90;;;;;;;19.98;51.31;100831.50;5051553;28;20060;-55
2023/04/26 04:56:37;;;;;;;2.22;1.10;;;;;;;19.98;51.19;100840.41;5051178;28;20506;-56
2023/04/26 04:59:05;;;;;;;4.05;1.13;;;;;;;19.98;51.13;100848.47;5051722;28;20072;-56
2023/04/26 05:01:34;;;;;;;1.80;0.90;;;;;;;19.99;51.20;100849.31;5051465;28;20423;-56
2023/04/26 05:04:06;;;;;;;1.58;0.70;;;;;;;19.98;51.30;100856.53;5051739;28;20503;-56
2023/04/26 05:06:34;;;;;;;1.67;0.80;;;;;;;19.97;51.23;100856.66;5051662;28;20491;-55
2023/04/26 05:09:04;;;;;;;1.85;0.82;;;;;;;19.97;51.22;100862.03;5053490;28;20491;-56
2023/04/26 05:11:32;;;;;;;1.73;0.80;;;;;;;19.97;51.11;100864.72;5038756;28;20052;-55
2023/04/26 05:14:00;;;;;;;1.92;0.73;;;;;;;19.97;51.29;100867.41;5055553;28;20048;-56
2023/04/26 05:16:28;;;;;;;1.63;0.65;;;;;;;19.96;50.80;100876.47;5055561;28;20442;-55
2023/04/26 05:18:57;;;;;;;1.60;0.70;;;;;;;19.96;51.01;100873.78;5055179;28;20049;-57
2023/04/26 05:21:25;;;;;;;1.77;0.75;;;;;;;19.96;51.16;100877.31;5055580;28;20048;-55
2023/04/26 05:23:52;;;;;;;1.98;0.90;;;;;;;19.95;51.19;100881.00;5055111;28;20502;-56
2023/04/26 05:26:20;;;;;;;1.77;0.82;;;;;;;19.96;51.28;100879.16;5054750;28;20048;-55
2023/04/26 05:28:55;;;;;;;1.58;0.70;;;;;;;19.96;51.35;100885.38;5054650;28;20498;-56
2023/04/26 05:31:40;;;;;;;1.67;0.60;;;;;;;19.95;51.24;100897.09;5062906;28;20060;-56
2023/04/26 05:34:26;;;;;;;2.97;0.80;;;;;;;19.95;51.43;100893.56;5063268;28;20437;-56
2023/04/26 05:36:56;;;;;;;1.95;0.85;;;;;;;19.95;51.24;100898.94;5054940;28;20045;-56
2023/04/26 05:39:24;;;;;;;2.25;0.95;;;;;;;19.95;51.53;100907.00;5056228;28;20116;-55
2023/04/26 05:41:51;;;;;;;1.67;0.82;;;;;;;19.94;51.28;100918.75;5054896;28;20415;-56
2023/04/26 05:44:18;;;;;;;1.58;0.80;;;;;;;19.95;51.35;100917.75;5054921;28;20052;-55
2023/04/26 05:46:46;;;;;;;1.73;0.95;;;;;;;19.94;51.52;100922.28;5054592;28;20395;-56
2023/04/26 05:49:13;;;;;;;1.70;0.80;;;;;;;19.94;51.58;100921.44;5054478;28;20069;-57
2023/04/26 05:51:41;;;;;;;2.53;1.05;;;;;;;19.93;51.55;100922.41;5054657;28;20052;-57
2023/04/26 05:54:08;;;;;;;3.00;0.95;;;;;;;19.94;51.42;100921.44;5054211;28;20068;-57
2023/04/26 05:56:36;;;;;;;2.63;0.80;;;;;;;19.93;51.56;100928.66;5054185;28;20060;-57
2023/04/26 05:59:03;;;;;;;1.48;0.68;;;;;;;19.94;51.47;100927.66;5055482;28;20045;-55
2023/04/26 06:01:32;;;;;;;2.25;0.90;;;;;;;19.93;51.48;100928.66;5054758;28;20057;-56
2023/04/26 06:04:00;;;;;;;1.80;0.93;;;;;;;19.93;51.58;100931.34;5054027;28;20053;-56
2023/04/26 06:06:35;;;;;;;3.05;0.77;;;;;;;19.93;51.63;100930.47;5054724;28;20056;-56
2023/04/26 06:09:03;;;;;;;3.85;1.15;;;;;;;19.94;51.48;100934.88;5055546;28;20041;-54
2023/04/26 06:11:30;;;;;;;1.88;0.85;;;;;;;19.94;51.83;100948.31;5055194;28;20052;-55
2023/04/26 06:13:58;;;;;;;1.65;0.80;;;;;;;19.94;52.11;100951.00;5054297;28;20072;-55
2023/04/26 06:16:25;;;;;;;3.17;1.00;;;;;;;19.94;52.04;100948.31;5055268;28;20040;-54
2023/04/26 06:18:52;;;;;;;3.15;0.80;;;;;;;19.94;52.15;100948.31;5054096;28;20064;-56
2023/04/26 06:21:20;;;;;;;3.22;1.60;;;;;;;19.89;46.43;100951.41;5055220;28;20053;-62
2023/04/26 06:23:47;;;;;;;5.63;2.00;;;;;;;19.72;45.67;100946.59;5053928;28;20048;-62
2023/04/26 06:26:17;;;;;;;3.85;2.35;;;;;;;19.53;45.96;100958.06;5054140;28;20053;-62
2023/04/26 06:28:44;;;;;;;5.55;2.15;;;;;;;19.34;46.02;100949.84;5054993;28;20075;-62
2023/04/26 06:31:13;;;;;;;6.22;2.55;;;;;;;19.17;46.59;100953.94;5054216;28;20053;-61
2023/04/26 06:33:40;;;;;;;4.97;2.38;;;;;;;19.07;47.53;100959.19;5053676;28;20064;-59
2023/04/26 06:36:11;;;;;;;4.35;2.05;;;;;;;19.02;47.93;100961.41;5053942;28;20065;-57
2023/04/26 06:38:40;;;;;;;3.75;1.98;;;;;;;18.98;48.05;100963.50;5053929;28;20072;-58
2023/04/26 06:41:08;;;;;;;6.18;2.33;;;;;;;19.02;48.28;100972.16;5037837;28;20415;-51
2023/04/26 06:43:35;;;;;;;24.60;3.92;;;;;;;19.05;48.41;100974.59;5053696;28;20060;-49
2023/04/26 06:46:06;;;;;;;14.00;2.35;;;;;;;19.07;47.97;100975.31;5053857;28;20479;-50
2023/04/26 06:48:34;;;;;;;11.52;2.58;;;;;;;19.12;48.61;100977.59;5053669;28;20045;-59
2023/04/26 06:51:07;;;;;;;4.22;1.67;;;;;;;19.16;47.69;100982.63;5053568;28;20057;-51
2023/04/26 06:53:35;;;;;;;5.32;2.20;;;;;;;19.15;46.94;100983.56;5053693;28;20107;-50
2023/04/26 06:56:03;;;;;;;5.28;2.28;;;;;;;19.13;47.11;100990.91;5054284;28;20048;-49
2023/04/26 06:58:30;;;;;;;7.68;2.35;;;;;;;19.14;47.47;100994.44;5052914;28;20045;-51
2023/04/26 07:00:58;;;;;;;7.93;2.08;;;;;;;19.13;47.82;100993.59;5054096;28;20056;-51
2023/04/26 07:03:25;;;;;;;8.05;1.80;;;;;;;19.16;47.99;100992.47;5054112;28;20048;-50
2023/04/26 07:05:55;;;;;;;6.57;3.13;;;;;;;19.19;47.80;100995.75;5053909;28;20045;-49
2023/04/26 07:08:22;;;;;;;5.80;1.83;;;;;;;19.20;47.82;101000.16;5053928;28;20052;-49
2023/04/26 07:10:50;;;;;;;5.68;1.90;;;;;;;19.24;47.68;101007.00;5053627;28;20053;-58
2023/04/26 07:13:17;;;;;;;7.55;1.55;;;;;;;19.30;47.88;101002.94;5053486;28;20044;-58
2023/04/26 07:15:45;;;;;;;6.28;1.70;;;;;;;19.36;47.49;101001.56;5054122;28;20045;-59
2023/04/26 07:18:13;;;;;;;4.70;1.50;;;;;;;19.40;47.14;100994.94;5054234;28;20041;-59
2023/04/26 07:20:41;;;;;;;3.95;1.40;;;;;;;19.44;47.06;101001.75;5053916;28;20045;-58
2023/04/26 07:23:08;;;;;;;3.70;1.30;;;;;;;19.47;46.81;100996.16;5053594;28;20045;-58
2023/04/26 07:25:35;;;;;;;2.95;1.38;;;;;;;19.52;47.89;100996.59;5053563;28;20045;-58
2023/04/26 07:28:03;;;;;;;2.92;1.10;;;;;;;19.57;48.47;100989.03;5052529;28;20044;-57
2023/04/26 07:30:31;;;;;;;3.55;1.10;;;;;;;19.62;48.82;100989.53;5053726;28;20363;-57
2023/04/26 07:32:58;;;;;;;3.70;1.77;;;;;;;19.67;48.71;100986.44;5053031;28;20068;-58
2023/04/26 07:35:26;;;;;;;5.03;1.15;;;;;;;19.72;48.72;100993.13;5053309;28;20049;-58
2023/04/26 07:37:53;;;;;;;3.00;0.75;;;;;;;19.75;48.80;100983.97;5053627;28;20048;-58
2023/04/26 07:40:23;;;;;;;1.83;1.00;;;;;;;19.79;48.91;100979.19;5053629;28;20491;-55
2023/04/26 07:42:51;;;;;;;4.60;1.00;;;;;;;19.83;48.75;100983.31;5053286;28;20052;-55
2023/04/26 07:45:19;;;;;;;2.47;1.10;;;;;;;19.85;49.00;100979.50;5053731;28;20479;-55
2023/04/26 07:47:46;;;;;;;2.45;0.93;;;;;;;19.88;49.13;100976.53;5053111;28;20487;-55
2023/04/26 07:50:14;;;;;;;2.28;0.98;;;;;;;19.90;49.13;100974.59;5053257;28;20040;-58
2023/04/26 07:52:42;;;;;;;5.75;0.93;;;;;;;19.92;49.27;100977.97;5057590;28;20048;-57
2023/04/26 07:55:10;;;;;;;3.05;0.90;;;;;;;19.96;49.37;100973.19;5072998;28;20044;-58
2023/04/26 07:57:37;;;;;;;1.90;1.00;;;;;;;19.97;49.37;100981.16;5073538;28;20067;-58
2023/04/26 08:00:09;;;;;;;2.70;1.00;;;;;;;20.00;49.39;100974.63;5073129;28;20511;-56
2023/04/26 08:02:38;;;;;;;2.38;0.90;;;;;;;20.02;49.26;100985.28;5079968;28;20514;-55
2023/04/26 08:05:12;;;;;;;3.63;0.90;;;;;;;20.02;49.47;100978.06;5073300;28;20049;-55
2023/04/26 08:07:40;;;;;;;3.20;1.15;;;;;;;20.05;49.38;100984.97;5072054;28;20052;-56
2023/04/26 08:10:09;;;;;;;2.10;0.95;;;;;;;20.07;49.41;100985.72;5073131;28;20041;-58
2023/04/26 08:12:38;;;;;;;1.95;0.80;;;;;;;20.07;49.62;100986.56;5073405;28;20061;-58
2023/04/26 08:15:05;;;;;;;3.13;0.70;;;;;;;20.09;49.68;100991.78;5073299;28;20048;-58
2023/04/26 08:17:33;;;;;;;2.35;0.90;;;;;;;20.09;49.71;100992.63;5073250;28;20055;-54
2023/04/26 08:20:01;;;;;;;2.35;0.50;;;;;;;20.11;49.60;100996.06;5073341;28;20052;-55
2023/04/26 08:22:28;;;;;;;5.32;1.13;;;;;;;20.11;49.67;100993.38;5073276;28;20057;-55
2023/04/26 08:24:55;;;;;;;1.88;0.77;;;;;;;20.11;49.68;100990.69;5073069;28;20052;-54
2023/04/26 08:27:23;;;;;;;3.22;1.20;;;;;;;20.12;49.72;100994.22;5073084;28;20067;-55
2023/04/26 08:29:50;;;;;;;3.45;1.00;;;;;;;20.14;49.80;100994.97;5073237;28;20044;-55
2023/04/26 08:32:17;;;;;;;3.40;0.90;;;;;;;20.14;49.80;100994.97;5073140;28;20059;-55
2023/04/26 08:34:45;;;;;;;1.50;0.70;;;;;;;20.14;49.91;100997.66;5073132;28;20123;-55
2023/04/26 08:37:12;;;;;;;3.67;1.00;;;;;;;20.14;49.77;100998.50;5073146;28;20040;-55
2023/04/26 08:39:40;;;;;;;2.60;0.88;;;;;;;20.16;49.72;100999.19;5072976;28;20398;-57
2023/04/26 08:42:15;;;;;;;3.20;0.90;;;;;;;20.17;49.89;101000.88;5073085;28;20387;-58
2023/04/26 08:44:44;;;;;;;1.85;0.80;;;;;;;20.17;49.88;101003.56;5074862;28;20048;-58
2023/04/26 08:47:23;;;;;;;3.17;1.00;;;;;;;20.18;49.86;101002.63;5077065;28;20398;-58
2023/04/26 08:49:58;;;;;;;1.42;0.60;;;;;;;20.20;49.89;101005.16;5076744;28;20059;-58
2023/04/26 08:52:30;;;;;;;3.42;0.90;;;;;;;20.21;50.05;101005.00;5075496;28;20376;-58
2023/04/26 08:54:59;;;;;;;2.58;0.98;;;;;;;20.23;49.92;101000.38;5076782;28;20059;-58
2023/04/26 08:57:26;;;;;;;2.70;0.90;;;;;;;20.24;49.92;101006.59;5076991;28;20048;-58
2023/04/26 08:59:56;;;;;;;2.95;1.10;;;;;;;20.25;49.39;101005.59;5076842;28;20497;-57
2023/04/26 09:02:24;;;;;;;1.83;0.82;;;;;;;20.27;49.25;101000.13;5075598;28;20044;-57
2023/04/26 09:04:51;;;;;;;3.03;1.02;;;;;;;20.27;48.58;100992.03;5076646;28;20379;-57
2023/04/26 09:07:30;;;;;;;1.83;1.00;;;;;;;20.27;48.81;100989.34;5075236;28;20052;-58
2023/04/26 09:09:59;;;;;;;2.42;1.13;;;;;;;20.29;47.03;100995.44;5076718;28;20051;-58
2023/04/26 09:12:27;;;;;;;3.20;1.17;;;;;;;20.31;47.36;100988.09;5076390;28;20044;-58
2023/04/26 09:14:55;;;;;;;2.00;0.70;;;;;;;20.31;48.09;100988.09;5076447;28;20052;-58
2023/04/26 09:17:33;;;;;;;2.10;1.20;;;;;;;20.29;46.66;100984.69;5076130;28;20403;-58
2023/04/26 09:20:05;;;;;;;2.40;1.00;;;;;;;20.28;47.33;100986.53;5076244;28;20051;-58
2023/04/26 09:22:36;;;;;;;3.92;1.35;;;;;;;20.27;47.37;100984.84;5076295;28;20047;-58
2023/04/26 09:25:04;;;;;;;2.45;0.98;;;;;;;20.30;46.15;100983.72;5076422;28;20067;-58
2023/04/26 09:27:36;;;;;;;1.73;0.80;;;;;;;20.31;47.01;100980.03;5039088;28;20065;-58
2023/04/26 09:30:17;;;;;;;2.95;1.00;;;;;;;20.30;46.27;100979.19;5036024;28;20379;-58
2023/04/26 09:32:57;;;;;;;4.90;1.25;;;;;;;20.32;46.54;100979.91;5035900;28;20056;-58
2023/04/26 09:35:26;;;;;;;4.15;1.15;;;;;;;20.32;46.71;100979.91;5035807;28;20049;-58
2023/04/26 09:38:07;;;;;;;10.40;1.42;;;;;;;20.34;47.94;100974.41;5036384;28;20060;-58
2023/04/26 09:40:44;;;;;;;4.05;0.93;;;;;;;20.33;47.32;100975.38;5036102;28;20041;-56
2023/04/26 09:43:16;;;;;;;7.78;1.30;;;;;;;20.32;46.81;100979.03;5036368;28;20119;-55
2023/04/26 09:45:57;;;;;;;2.65;1.25;;;;;;;20.33;46.91;100980.75;5036358;28;20396;-55
2023/04/26 09:48:29;;;;;;;4.45;0.90;;;;;;;20.33;46.90;100975.38;5036155;28;20049;-55
2023/04/26 09:51:02;;;;;;;5.78;1.38;;;;;;;20.30;46.55;100973.81;5035880;28;20041;-58
2023/04/26 09:53:37;;;;;;;;;;;;;;;20.31;47.07;100969.28;5036456;28;20045;-58
2023/04/26 09:56:14;;;;;;;4.18;1.35;;;;;;;20.32;46.89;100962.91;5035426;28;19921;-58
2023/04/26 09:58:58;;;;;;;1.73;0.70;;;;;;;20.29;47.36;100974.78;5035862;28;20054;-58
2023/04/26 10:01:28;;;;;;;2.05;0.90;;;;;;;20.29;47.69;100965.88;5036138;28;20057;-55
2023/04/26 10:03:59;;;;;;;3.15;0.90;;;;;;;20.28;47.43;100961.47;5035834;28;20045;-56
2023/04/26 10:06:27;;;;;;;1.60;0.80;;;;;;;20.27;47.19;100967.84;5035549;28;20057;-56
2023/04/26 10:08:55;;;;;;;2.88;0.98;;;;;;;20.25;47.26;100960.78;5035299;28;20083;-55
2023/04/26 10:11:23;;;;;;;2.08;0.70;;;;;;;20.26;47.60;100964.31;5035714;28;20068;-55
2023/04/26 10:13:51;;;;;;;2.60;0.68;;;;;;;20.26;47.49;100958.94;5035535;28;20057;-55
2023/04/26 10:16:20;;;;;;;1.73;0.50;;;;;;;20.26;46.95;100958.94;5035267;28;20045;-56
2023/04/26 10:18:48;;;;;;;1.50;0.60;;;;;;;20.27;47.61;100951.72;5034967;28;20048;-55
2023/04/26 10:21:23;;;;;;;2.28;0.88;;;;;;;20.25;47.67;100955.41;5035426;28;20045;-56
2023/04/26 10:23:51;;;;;;;2.13;0.82;;;;;;;20.25;47.53;100950.03;5035406;28;20052;-55
2023/04/26 10:26:50;;;;;;;2.65;0.70;;;;;;;20.25;46.99;100943.78;5034985;28;20052;-55
2023/04/26 10:29:21;;;;;;;1.67;0.65;;;;;;;20.25;47.46;100944.66;5035177;28;20052;-58
2023/04/26 10:32:01;;;;;;;3.70;0.90;;;;;;;20.27;47.27;100949.03;5034068;28;20054;-58
2023/04/26 10:34:30;;;;;;;3.58;1.20;;;;;;;20.28;46.36;100940.81;5034939;28;20507;-58
2023/04/26 10:37:14;;;;;;;2.25;1.20;;;;;;;20.29;47.20;100947.03;5035012;28;20498;-58
2023/04/26 10:39:45;;;;;;;2.88;1.20;;;;;;;20.28;47.29;100948.03;5042499;28;20490;-55
2023/04/26 10:42:29;;;;;;;3.40;1.50;;;;;;;20.29;47.13;100937.13;5053653;28;20056;-55
2023/04/26 10:44:58;;;;;;;4.38;1.77;;;;;;;20.29;45.70;100931.75;5054521;28;20044;-55
2023/04/26 10:47:31;;;;;;;3.83;2.10;;;;;;;20.30;46.65;100929.94;5054914;28;20479;-55
2023/04/26 10:50:10;;;;;;;4.72;2.92;;;;;;;20.30;47.24;100925.41;5054653;28;20041;-55
2023/04/26 10:52:56;;;;;;;5.32;3.17;;;;;;;20.30;47.01;100927.25;5054670;28;20045;-55
2023/04/26 10:55:40;;;;;;;5.72;3.22;;;;;;;20.28;45.82;100922.00;5054985;28;20045;-55
2023/04/26 10:58:29;;;;;;;4.90;2.30;;;;;;;20.28;46.57;100929.22;5054614;28;20052;-54
2023/04/26 11:01:21;;;;;;;3.95;2.60;;;;;;;20.28;46.42;100927.38;5054493;28;20040;-58
2023/04/26 11:03:57;;;;;;;3.67;2.35;;;;;;;20.27;45.84;100928.38;5052568;28;20044;-58
2023/04/26 11:06:26;;;;;;;3.72;1.98;;;;;;;20.24;45.02;100923.25;5043684;28;20053;-58
2023/04/26 11:08:53;;;;;;;4.47;2.22;;;;;;;20.19;44.97;100923.66;5048957;28;20526;-58
2023/04/26 11:11:25;;;;;;;4.78;2.15;;;;;;;20.10;44.00;100921.81;5034912;28;20509;-58
2023/04/26 11:13:53;;;;;;;2.85;1.60;;;;;;;20.00;44.00;100913.69;5033225;28;20050;-58
2023/04/26 11:16:21;;;;;;;5.20;1.63;;;;;;;19.94;44.15;100905.31;5032631;28;20406;-57
2023/04/26 11:18:48;;;;;;;4.28;1.55;;;;;;;19.90;44.72;100901.19;5033307;28;20049;-58
2023/04/26 11:21:18;;;;;;;2.88;1.30;;;;;;;19.90;45.01;100893.13;5033966;28;20483;-55
2023/04/26 11:23:53;;;;;;;2.83;1.20;;;;;;;19.92;45.36;100894.69;5033445;28;20038;-55
2023/04/26 11:26:21;;;;;;;2.80;1.70;;;;;;;19.96;45.27;100897.97;5033421;28;20053;-55
2023/04/26 11:28:48;;;;;;;5.10;1.50;;;;;;;19.98;45.50;100894.16;5032239;28;20049;-55
2023/04/26 11:31:17;;;;;;;3.60;1.10;;;;;;;20.00;45.56;100886.81;5034065;28;20469;-55
2023/04/26 11:33:45;;;;;;;2.78;1.20;;;;;;;20.03;45.77;100890.22;5033064;28;20060;-55
2023/04/26 11:36:18;;;;;;;2.90;1.45;;;;;;;20.06;45.38;100884.59;5033625;28;20049;-55